Time;durP1;ratioP1;P1;durP2;ratioP2;P2;SDS_P1;SDS_P2;PMS_P1;PMS_P2;Temp;Humidity;BMP_temperature;BMP_pressure;BME280_temperature;BME280_humidity;BME280_pressure;Samples;Min_cycle;Max_cycle;Signal;HPM_P1;HPM_P2
2021/07/10 00:00:59;;;;;;;;;;;;;;;22.40;56.74;101712.41;5038501;28;906;-55
2021/07/10 00:03:24;;;;;;;;;;;;;;;22.40;56.61;101713.25;5038024;28;843;-56
2021/07/10 00:05:50;;;;;;;;;;;;;;;22.39;56.40;101708.84;5037519;28;1902;-57
2021/07/10 00:08:15;;;;;;;;;;;;;;;22.38;56.56;101706.31;5036797;28;1907;-55
2021/07/10 00:10:40;;;;;;;;;;;;;;;22.36;56.39;101703.75;5038235;28;946;-56
2021/07/10 00:13:05;;;;;;;;;;;;;;;22.35;56.47;101698.47;5037755;28;870;-57
2021/07/10 00:15:30;;;;;;;;;;;;;;;22.34;56.55;101699.47;5037955;28;957;-58
2021/07/10 00:17:55;;;;;;;;;;;;;;;22.35;56.51;101696.59;5037793;28;1646;-57
2021/07/10 00:20:20;;;;;;;;;;;;;;;22.35;56.56;101693.03;5037553;28;865;-57
2021/07/10 00:22:45;;;;;;;;;;;;;;;22.34;56.35;101692.19;5037606;28;1918;-57
2021/07/10 00:25:10;;;;;;;;;;;;;;;22.35;56.56;101698.47;5037414;28;1897;-55
2021/07/10 00:27:35;;;;;;;;;;;;;;;22.34;56.59;101697.59;5037622;28;850;-58
2021/07/10 00:30:00;;;;;;;;;;;;;;;22.35;56.47;101704.75;5037685;28;771;-57
2021/07/10 00:32:26;;;;;;;;;;;;;;;22.34;56.78;101697.59;5037933;28;858;-58
2021/07/10 00:34:51;;;;;;;;;;;;;;;22.35;56.73;101699.31;5037684;28;1056;-58
2021/07/10 00:37:16;;;;;;;;;;;;;;;22.34;56.88;101703.03;5038002;28;1529;-58
2021/07/10 00:39:41;;;;;;;;;;;;;;;22.32;57.15;101693.34;5037414;28;2188;-58
2021/07/10 00:42:06;;;;;;;;;;;;;;;22.31;56.97;101686.19;5037751;28;937;-59
2021/07/10 00:44:31;;;;;;;;;;;;;;;22.31;57.05;101688.91;5037367;28;848;-59
2021/07/10 00:46:56;;;;;;;;;;;;;;;22.31;57.31;101688.91;5037486;28;1967;-59
2021/07/10 00:49:21;;;;;;;;;;;;;;;22.31;57.02;101687.06;5037603;28;789;-58
2021/07/10 00:51:46;;;;;;;;;;;;;;;22.30;57.04;101685.34;5037345;28;918;-58
2021/07/10 00:54:11;;;;;;;;;;;;;;;22.22;57.22;101685.25;5036794;28;1969;-58
2021/07/10 00:56:36;;;;;;;;;;;;;;;22.20;57.60;101678.28;5037378;28;1540;-59
2021/07/10 00:59:02;;;;;;;;;;;;;;;22.21;57.62;101670.00;5037574;28;835;-59
2021/07/10 01:01:27;;;;;;;;;;;;;;;22.25;57.32;101679.50;5037112;28;1001;-59
2021/07/10 01:03:52;;;;;;;;;;;;;;;22.27;57.22;101663.94;5036030;28;954;-58
2021/07/10 01:06:17;;;;;;;;;;;;;;;22.28;57.09;101665.63;5037138;28;1902;-56
2021/07/10 01:08:42;;;;;;;;;;;;;;;22.28;57.28;101660.19;5036978;28;882;-56
2021/07/10 01:11:07;;;;;;;;;;;;;;;22.27;57.54;101655.78;5036310;28;1993;-57
2021/07/10 01:13:32;;;;;;;;;;;;;;;22.25;57.17;101652.34;5036568;28;1991;-58
2021/07/10 01:15:57;;;;;;;;;;;;;;;22.26;57.44;101645.91;5037059;28;1450;-59
2021/07/10 01:18:22;;;;;;;;;;;;;;;22.22;57.48;101649.94;5036490;28;1000;-59
2021/07/10 01:20:47;;;;;;;;;;;;;;;22.24;57.86;101650.66;5036949;28;996;-58
2021/07/10 01:23:13;;;;;;;;;;;;;;;22.24;57.47;101645.22;5036890;28;870;-58
2021/07/10 01:25:38;;;;;;;;;;;;;;;22.24;57.45;101647.94;5036498;28;1891;-57
2021/07/10 01:28:03;;;;;;;;;;;;;;;22.24;57.57;101653.38;5035856;28;2020;-57
2021/07/10 01:30:28;;;;;;;;;;;;;;;22.23;57.41;101654.38;5036581;28;899;-56
2021/07/10 01:32:53;;;;;;;;;;;;;;;22.22;57.46;101649.94;5035341;28;1218;-55
2021/07/10 01:35:18;;;;;;;;;;;;;;;22.20;57.20;101651.16;5036735;28;881;-55
2021/07/10 01:37:43;;;;;;;;;;;;;;;22.21;57.72;101640.13;5036742;28;844;-56
2021/07/10 01:40:09;;;;;;;;;;;;;;;22.19;57.63;101642.16;5036350;28;858;-57
2021/07/10 01:42:34;;;;;;;;;;;;;;;22.19;57.51;101639.44;5035993;28;1861;-55
2021/07/10 01:44:59;;;;;;;;;;;;;;;22.20;57.40;101646.56;5035887;28;1961;-53
2021/07/10 01:47:24;;;;;;;;;;;;;;;22.20;57.73;101638.44;5035873;28;1994;-55
2021/07/10 01:49:49;;;;;;;;;;;;;;;22.20;57.44;101640.28;5036090;28;1187;-57
2021/07/10 01:52:14;;;;;;;;;;;;;;;22.20;57.80;101645.72;5036182;28;1004;-57
2021/07/10 01:54:39;;;;;;;;;;;;;;;22.18;57.81;101637.72;5036064;28;1900;-57
2021/07/10 01:57:04;;;;;;;;;;;;;;;22.19;57.83;101631.28;5036080;28;924;-57
2021/07/10 01:59:29;;;;;;;;;;;;;;;22.17;57.77;101625.16;5035335;28;1863;-57
2021/07/10 02:01:54;;;;;;;;;;;;;;;22.16;57.25;101639.72;5036045;28;1622;-58
2021/07/10 02:04:21;;;;;;;;;;;;;;;22.16;57.52;101634.31;5035718;28;1907;-58
2021/07/10 02:06:46;;;;;;;;;;;;;;;22.15;57.91;101635.31;5035800;28;1898;-57
2021/07/10 02:09:11;;;;;;;;;;;;;;;22.14;57.68;101628.19;5035496;28;972;-58
2021/07/10 02:11:36;;;;;;;;;;;;;;;22.13;57.71;101618.31;5034947;28;1842;-59
2021/07/10 02:14:01;;;;;;;;;;;;;;;22.14;57.49;101625.47;5035649;28;1862;-59
2021/07/10 02:16:26;;;;;;;;;;;;;;;22.13;57.42;101618.31;5035431;28;870;-59
2021/07/10 02:18:51;;;;;;;;;;;;;;;22.12;57.78;101609.31;5034407;28;1466;-58
2021/07/10 02:21:16;;;;;;;;;;;;;;;22.12;57.49;101605.75;5034572;28;1905;-58
2021/07/10 02:23:41;;;;;;;;;;;;;;;22.11;57.44;101607.63;5035535;28;1919;-59
2021/07/10 02:26:06;;;;;;;;;;;;;;;22.10;57.66;101608.63;5035157;28;1906;-58
2021/07/10 02:28:32;;;;;;;;;;;;;;;22.10;57.81;101608.63;5035681;28;993;-58
2021/07/10 02:30:57;;;;;;;;;;;;;;;22.09;57.42;101593.34;5035668;28;1830;-59
2021/07/10 02:33:22;;;;;;;;;;;;;;;22.10;57.63;101594.19;5035142;28;925;-59
2021/07/10 02:35:47;;;;;;;;;;;;;;;22.08;57.64;101594.34;5035544;28;864;-59
2021/07/10 02:38:12;;;;;;;;;;;;;;;22.08;57.82;101593.50;5034807;28;2044;-58
2021/07/10 02:40:37;;;;;;;;;;;;;;;22.07;57.83;101589.06;5035064;28;1077;-58
2021/07/10 02:43:02;;;;;;;;;;;;;;;22.06;57.86;101582.78;5035171;28;1985;-58
2021/07/10 02:45:27;;;;;;;;;;;;;;;22.06;57.45;101576.50;5035250;28;1913;-58
2021/07/10 02:47:52;;;;;;;;;;;;;;;22.04;57.85;101571.22;5035384;28;852;-59
2021/07/10 02:50:17;;;;;;;;;;;;;;;22.04;57.16;101576.66;5035052;28;795;-59
2021/07/10 02:52:42;;;;;;;;;;;;;;;22.05;57.45;101577.50;5035006;28;895;-57
2021/07/10 02:55:07;;;;;;;;;;;;;;;22.05;57.59;101582.94;5034860;28;2005;-58
2021/07/10 02:57:33;;;;;;;;;;;;;;;22.04;57.34;101579.38;5035313;28;1798;-58
2021/07/10 02:59:59;;;;;;;;;;;;;;;22.05;57.31;101582.94;5034796;28;1539;-59
2021/07/10 03:02:24;;;;;;;;;;;;;;;22.03;57.65;101582.28;5035316;28;1871;-59
2021/07/10 03:04:49;;;;;;;;;;;;;;;22.03;57.56;101579.56;5035267;28;1009;-58
2021/07/10 03:07:14;;;;;;;;;;;;;;;22.02;57.87;101576.00;5035092;28;1893;-58
2021/07/10 03:09:39;;;;;;;;;;;;;;;22.02;57.93;101572.44;5034796;28;1961;-58
2021/07/10 03:12:04;;;;;;;;;;;;;;;22.02;57.41;101567.00;5034606;28;928;-59
2021/07/10 03:14:29;;;;;;;;;;;;;;;22.01;57.87;101568.84;5034147;28;1659;-59
2021/07/10 03:16:54;;;;;;;;;;;;;;;22.00;57.67;101572.56;5035214;28;1261;-59
2021/07/10 03:19:20;;;;;;;;;;;;;;;22.00;57.91;101566.28;5034840;28;797;-59
2021/07/10 03:21:45;;;;;;;;;;;;;;;21.99;57.58;101572.69;5034854;28;1902;-59
2021/07/10 03:24:10;;;;;;;;;;;;;;;21.98;57.58;101565.56;5035025;28;2007;-59
2021/07/10 03:26:35;;;;;;;;;;;;;;;21.98;57.47;101560.13;5036511;28;1951;-59
2021/07/10 03:29:00;;;;;;;;;;;;;;;21.95;57.56;101558.59;5038748;28;1049;-59
2021/07/10 03:31:25;;;;;;;;;;;;;;;21.95;57.69;101555.88;5039238;28;1013;-58
2021/07/10 03:33:50;;;;;;;;;;;;;;;21.96;57.78;101540.44;5038380;28;1962;-58
2021/07/10 03:36:15;;;;;;;;;;;;;;;21.95;57.55;101544.16;5038551;28;1993;-59
2021/07/10 03:38:43;;;;;;;;;;;;;;;21.94;57.39;101543.31;5038421;28;945;-59
2021/07/10 03:41:08;;;;;;;;;;;;;;;21.95;57.67;101547.72;5038230;28;2057;-58
2021/07/10 03:43:34;;;;;;;;;;;;;;;21.93;57.53;101547.03;5038316;28;851;-57
2021/07/10 03:46:02;;;;;;;;;;;;;;;21.95;57.69;101546.88;5037382;28;1910;-59
2021/07/10 03:48:27;;;;;;;;;;;;;;;21.93;57.55;101541.59;5036927;28;1960;-59
2021/07/10 03:50:52;;;;;;;;;;;;;;;21.91;57.37;101549.03;5038562;28;998;-58
2021/07/10 03:53:17;;;;;;;;;;;;;;;21.90;57.59;101546.47;5037153;28;986;-59
2021/07/10 03:55:43;;;;;;;;;;;;;;;21.89;57.75;101551.06;5038137;28;914;-59
2021/07/10 03:58:08;;;;;;;;;;;;;;;21.89;57.51;101544.78;5038436;28;803;-59
2021/07/10 04:00:33;;;;;;;;;;;;;;;21.89;57.85;101551.06;5038089;28;1002;-59
2021/07/10 04:02:58;;;;;;;;;;;;;;;21.89;57.65;101547.47;5037585;28;2005;-58
2021/07/10 04:05:23;;;;;;;;;;;;;;;21.89;57.89;101547.47;5038102;28;1914;-60
2021/07/10 04:07:48;;;;;;;;;;;;;;;21.88;57.86;101543.06;5038221;28;865;-60
2021/07/10 04:10:13;;;;;;;;;;;;;;;21.87;57.92;101541.34;5038352;28;1009;-60
2021/07/10 04:12:38;;;;;;;;;;;;;;;21.86;57.69;101545.06;5037561;28;957;-59
2021/07/10 04:15:03;;;;;;;;;;;;;;;21.84;57.49;101547.97;5037924;28;1642;-59
2021/07/10 04:17:28;;;;;;;;;;;;;;;21.86;57.69;101555.94;5037866;28;2001;-58
2021/07/10 04:19:53;;;;;;;;;;;;;;;21.85;57.52;101549.69;5037535;28;848;-58
2021/07/10 04:22:18;;;;;;;;;;;;;;;21.85;57.73;101546.13;5037570;28;1993;-58
2021/07/10 04:24:44;;;;;;;;;;;;;;;21.85;57.95;101546.13;5038145;28;1723;-58
2021/07/10 04:27:09;;;;;;;;;;;;;;;21.83;57.94;101538.13;5037171;28;1953;-56
2021/07/10 04:29:34;;;;;;;;;;;;;;;21.83;58.03;101541.69;5037262;28;878;-58
2021/07/10 04:31:59;;;;;;;;;;;;;;;21.83;57.96;101547.13;5037734;28;1890;-57
2021/07/10 04:34:24;;;;;;;;;;;;;;;21.82;58.08;101545.41;5037783;28;1989;-57
2021/07/10 04:36:49;;;;;;;;;;;;;;;21.77;57.69;101541.44;5037016;28;808;-59
2021/07/10 04:39:14;;;;;;;;;;;;;;;21.76;57.89;101545.16;5036904;28;863;-58
2021/07/10 04:41:39;;;;;;;;;;;;;;;21.73;58.06;101537.34;5037409;28;837;-58
2021/07/10 04:44:04;;;;;;;;;;;;;;;21.70;58.11;101540.34;5037318;28;1762;-58
2021/07/10 04:46:29;;;;;;;;;;;;;;;21.70;58.33;101543.91;5037490;28;1975;-59
2021/07/10 04:48:54;;;;;;;;;;;;;;;21.72;58.02;101535.63;5037294;28;1906;-59
2021/07/10 04:51:19;;;;;;;;;;;;;;;21.72;58.28;101533.78;5037363;28;834;-58
2021/07/10 04:53:45;;;;;;;;;;;;;;;21.70;58.08;101538.50;5037669;28;1760;-58
2021/07/10 04:56:10;;;;;;;;;;;;;;;21.72;58.95;101541.91;5037253;28;918;-58
2021/07/10 04:58:35;;;;;;;;;;;;;;;21.75;58.04;101544.31;5036580;28;1854;-59
2021/07/10 05:01:00;;;;;;;;;;;;;;;21.76;58.63;101539.75;5036623;28;1961;-59
2021/07/10 05:03:25;;;;;;;;;;;;;;;21.76;58.04;101546.03;5037434;28;1710;-59
2021/07/10 05:05:50;;;;;;;;;;;;;;;21.71;58.48;101548.34;5036478;28;1902;-57
2021/07/10 05:08:15;;;;;;;;;;;;;;;21.73;58.62;101540.91;5036546;28;1600;-57
2021/07/10 05:10:40;;;;;;;;;;;;;;;21.70;58.64;101537.63;5034901;28;2213;-57
2021/07/10 05:13:07;;;;;;;;;;;;;;;21.66;58.32;101534.41;5030201;28;2504;-55
2021/07/10 05:15:32;;;;;;;;;;;;;;;21.68;58.79;101536.94;5027422;28;1692;-57
2021/07/10 05:17:57;;;;;;;;;;;;;;;21.64;58.40;101533.72;5032092;28;1802;-58
2021/07/10 05:20:23;;;;;;;;;;;;;;;21.62;58.19;101538.44;5020329;28;1704;-57
2021/07/10 05:22:48;;;;;;;;;;;;;;;21.55;58.93;101533.75;5018165;28;1909;-57
2021/07/10 05:25:13;;;;;;;;;;;;;;;21.40;58.27;101533.44;5034866;28;1951;-57
2021/07/10 05:27:38;;;;;;;;;;;;;;;21.33;58.63;101533.19;5035117;28;1869;-58
2021/07/10 05:30:03;;;;;;;;;;;;;;;21.36;59.23;101532.88;5029719;28;1849;-58
2021/07/10 05:32:28;;;;;;;;;;;;;;;21.41;58.74;101529.72;5017043;28;1766;-56
2021/07/10 05:34:53;;;;;;;;;;;;;;;21.47;58.49;101521.00;5025594;28;1718;-57
2021/07/10 05:37:18;;;;;;;;;;;;;;;21.56;58.59;101530.03;5023144;28;1835;-57
2021/07/10 05:39:43;;;;;;;;;;;;;;;21.47;58.49;101523.69;5030847;28;1994;-56
2021/07/10 05:42:08;;;;;;;;;;;;;;;21.53;58.35;101533.91;5038349;28;1942;-58
2021/07/10 05:44:33;;;;;;;;;;;;;;;21.31;58.67;101537.94;5031564;28;1667;-57
2021/07/10 05:46:58;;;;;;;;;;;;;;;21.30;59.02;101529.97;5030971;28;2248;-56
2021/07/10 05:49:23;;;;;;;;;;;;;;;21.28;59.15;101531.97;5033956;28;2926;-57
2021/07/10 05:51:49;;;;;;;;;;;;;;;21.20;58.88;101521.88;5035742;28;2346;-57
2021/07/10 05:54:14;;;;;;;;;;;;;;;21.27;58.97;101524.84;5035272;28;1877;-58
2021/07/10 05:56:39;;;;;;;;;;;;;;;21.38;58.45;101521.91;5035178;28;2834;-58
2021/07/10 05:59:04;;;;;;;;;;;;;;;21.33;59.22;101516.06;5035954;28;1636;-58
2021/07/10 06:01:29;;;;;;;;;;;;;;;21.35;57.89;101523.06;5033751;28;3249;-57
2021/07/10 06:03:54;;;;;;;;;;;;;;;21.15;58.70;101518.72;5035871;28;1929;-57
2021/07/10 06:06:19;;;;;;;;;;;;;;;21.22;58.80;101517.16;5035015;28;1890;-56
2021/07/10 06:08:44;;;;;;;;;;;;;;;21.35;58.94;101527.63;5034489;28;1768;-58
2021/07/10 06:11:09;;;;;;;;;;;;;;;21.35;58.47;101519.47;5034662;28;1722;-58
2021/07/10 06:13:34;;;;;;;;;;;;;;;21.38;58.76;101533.59;5035385;28;1946;-57
2021/07/10 06:15:59;;;;;;;;;;;;;;;21.33;58.82;101527.75;5036206;28;1800;-57
2021/07/10 06:18:24;;;;;;;;;;;;;;;21.27;59.01;101530.25;5034915;28;1707;-58
2021/07/10 06:20:50;;;;;;;;;;;;;;;21.12;58.81;101529.88;5035016;28;1727;-58
2021/07/10 06:23:17;;;;;;;;;;;;;;;21.23;58.77;101531.56;5035125;28;1820;-57
2021/07/10 06:25:42;;;;;;;;;;;;;;;21.34;58.55;101528.63;5031410;28;2204;-57
2021/07/10 06:28:08;;;;;;;;;;;;;;;21.47;59.81;101529.97;5026151;28;2228;-57
2021/07/10 06:30:33;;;;;;;;;;;;;;;21.46;59.17;101535.56;5023330;28;1969;-57
2021/07/10 06:32:58;;;;;;;;;;;;;;;21.33;58.50;101526.91;5031115;28;1879;-58
2021/07/10 06:35:25;;;;;;;;;;;;;;;21.20;59.50;101531.84;5020710;28;1923;-53
2021/07/10 06:37:50;;;;;;;;;;;;;;;21.32;58.90;101530.63;5032743;28;2037;-56
2021/07/10 06:40:15;;;;;;;;;;;;;;;21.35;59.00;101541.19;5025066;28;1857;-58
2021/07/10 06:42:40;;;;;;;;;;;;;;;21.30;58.80;101536.22;5022334;28;1864;-58
2021/07/10 06:45:05;;;;;;;;;;;;;;;21.03;59.13;101523.50;5026289;28;1906;-58
2021/07/10 06:47:30;;;;;;;;;;;;;;;21.24;58.98;101527.84;5020649;28;1822;-58
2021/07/10 06:49:55;;;;;;;;;;;;;;;21.24;59.35;101522.41;5038073;28;2036;-58
2021/07/10 06:52:20;;;;;;;;;;;;;;;21.29;59.08;101530.97;5018895;28;1688;-58
2021/07/10 06:54:45;;;;;;;;;;;;;;;21.40;59.35;101530.72;5016199;28;1949;-58
2021/07/10 06:57:10;;;;;;;;;;;;;;;21.47;59.03;101529.13;5034016;28;2038;-58
2021/07/10 06:59:36;;;;;;;;;;;;;;;21.52;58.94;101532.22;5035091;28;1874;-58
2021/07/10 07:02:01;;;;;;;;;;;;;;;21.60;59.43;101535.00;5047709;28;2186;-58
2021/07/10 07:04:26;;;;;;;;;;;;;;;21.64;60.12;101530.13;5027779;28;1661;-58
2021/07/10 07:06:51;;;;;;;;;;;;;;;21.69;61.51;101544.06;5021901;28;1951;-58
2021/07/10 07:09:16;;;;;;;;;;;;;;;21.71;61.87;101540.19;5017694;28;1700;-55
2021/07/10 07:11:41;;;;;;;;;;;;;;;21.57;60.91;101534.47;5016676;28;1611;-58
2021/07/10 07:14:06;;;;;;;;;;;;;;;21.54;60.17;101538.34;5021877;28;2116;-56
2021/07/10 07:16:31;;;;;;;;;;;;;;;21.56;60.65;101530.03;5016716;28;1789;-57
2021/07/10 07:18:56;;;;;;;;;;;;;;;21.62;60.62;101533.00;5016624;28;1689;-58
2021/07/10 07:21:21;;;;;;;;;;;;;;;21.57;60.00;101524.47;5021813;28;1891;-57
2021/07/10 07:23:47;;;;;;;;;;;;;;;21.56;61.03;101533.63;5025978;28;1701;-58
2021/07/10 07:26:12;;;;;;;;;;;;;;;21.65;60.66;101524.56;5017040;28;1959;-58
2021/07/10 07:28:37;;;;;;;;;;;;;;;21.82;64.62;101526.41;5034470;28;1633;-58
2021/07/10 07:31:02;;;;;;;;;;;;;;;21.81;59.69;101527.44;5034320;28;1969;-58
2021/07/10 07:33:28;;;;;;;;;;;;;;;21.74;62.69;101534.47;5034422;28;1913;-58
2021/07/10 07:35:53;;;;;;;;;;;;;;;21.76;62.97;101531.59;5034615;28;1827;-59
2021/07/10 07:38:20;;;;;;;;;;;;;;;21.70;62.41;101530.34;5034636;28;1992;-59
2021/07/10 07:40:45;;;;;;;;;;;;;;;21.77;62.81;101530.59;5034655;28;2050;-58
2021/07/10 07:43:10;;;;;;;;;;;;;;;21.77;62.20;101526.03;5034437;28;1981;-58
2021/07/10 07:45:35;;;;;;;;;;;;;;;21.79;61.68;101521.28;5034541;28;1999;-58
2021/07/10 07:48:00;;;;;;;;;;;;;;;21.82;61.99;101518.28;5032396;28;1935;-58
2021/07/10 07:50:25;;;;;;;;;;;;;;;21.81;61.99;101522.00;5034739;28;1931;-58
2021/07/10 07:52:50;;;;;;;;;;;;;;;21.62;60.36;101521.31;5034032;28;1501;-58
2021/07/10 07:55:16;;;;;;;;;;;;;;;21.58;61.12;101520.75;5034204;28;1782;-58
2021/07/10 07:57:41;;;;;;;;;;;;;;;21.68;60.42;101521.50;5034469;28;973;-58
2021/07/10 08:00:07;;;;;;;;;;;;;;;21.75;60.51;101521.75;5034737;28;915;-58
2021/07/10 08:02:32;;;;;;;;;;;;;;;21.75;60.84;101522.59;5034671;28;764;-58
2021/07/10 08:04:57;;;;;;;;;;;;;;;21.76;60.98;101526.19;5034217;28;1009;-58
2021/07/10 08:07:22;;;;;;;;;;;;;;;21.76;59.66;101518.88;5034860;28;1914;-58
2021/07/10 08:09:48;;;;;;;;;;;;;;;21.74;59.88;101523.63;5034496;28;1057;-58
2021/07/10 08:12:13;;;;;;;;;;;;;;;21.70;59.47;101516.78;5035889;28;969;-58
2021/07/10 08:14:39;;;;;;;;;;;;;;;21.68;58.86;101509.81;5038256;28;935;-58
2021/07/10 08:17:04;;;;;;;;;;;;;;;21.72;59.19;101509.34;5036374;28;1017;-58
2021/07/10 08:19:29;;;;;;;;;;;;;;;21.72;58.38;101506.63;5038616;28;989;-58
2021/07/10 08:21:54;;;;;;;;;;;;;;;21.56;58.96;101500.22;5038086;28;1464;-58
2021/07/10 08:24:19;;;;;;;;;;;;;;;21.40;57.59;101496.34;5037974;28;1049;-58
2021/07/10 08:26:44;;;;;;;;;;;;;;;21.35;58.37;101493.22;5037704;28;1898;-58
2021/07/10 08:29:10;;;;;;;;;;;;;;;21.34;57.47;101490.66;5037820;28;1050;-58
2021/07/10 08:31:35;;;;;;;;;;;;;;;21.39;57.46;101489.22;5036332;28;744;-57
2021/07/10 08:34:00;;;;;;;;;;;;;;;21.54;57.61;101492.22;5037810;28;1006;-58
2021/07/10 08:36:25;;;;;;;;;;;;;;;21.46;57.09;101489.44;5037899;28;827;-57
2021/07/10 08:38:51;;;;;;;;;;;;;;;21.39;57.69;101488.34;5037456;28;1072;-58
2021/07/10 08:41:16;;;;;;;;;;;;;;;21.52;57.40;101486.09;5037641;28;851;-58
2021/07/10 08:43:43;;;;;;;;;;;;;;;21.43;57.08;101481.63;5037826;28;1063;-58
2021/07/10 08:46:08;;;;;;;;;;;;;;;21.50;57.34;101485.41;5037033;28;1961;-58
2021/07/10 08:48:33;;;;;;;;;;;;;;;21.36;56.92;101483.22;5037632;28;1063;-58
2021/07/10 08:50:58;;;;;;;;;;;;;;;21.36;56.71;101483.22;5037936;28;1550;-58
2021/07/10 08:53:23;;;;;;;;;;;;;;;21.27;56.99;101486.88;5037362;28;849;-58
2021/07/10 08:55:50;;;;;;;;;;;;;;;21.33;56.46;101492.53;5037411;28;1016;-58
2021/07/10 08:58:15;;;;;;;;;;;;;;;21.42;57.23;101494.31;5037581;28;932;-58
2021/07/10 09:00:41;;;;;;;;;;;;;;;21.45;56.84;101487.75;5037426;28;1626;-57
2021/07/10 09:03:06;;;;;;;;;;;;;;;21.31;56.75;101485.56;5037013;28;882;-58
2021/07/10 09:05:31;;;;;;;;;;;;;;;21.36;57.24;101483.22;5037010;28;1947;-58
2021/07/10 09:07:56;;;;;;;;;;;;;;;21.52;57.57;101486.09;5037299;28;1009;-58
2021/07/10 09:10:21;;;;;;;;;;;;;;;21.45;56.74;101477.75;5037155;28;1556;-58
2021/07/10 09:12:46;;;;;;;;;;;;;;;21.33;56.87;101475.41;5036937;28;1064;-58
2021/07/10 09:15:11;;;;;;;;;;;;;;;21.24;56.54;101473.63;5036966;28;1080;-58
2021/07/10 09:17:36;;;;;;;;;;;;;;;21.39;57.36;101472.09;5036824;28;943;-57
2021/07/10 09:20:01;;;;;;;;;;;;;;;21.51;57.00;101475.41;5037164;28;1631;-58
2021/07/10 09:22:27;;;;;;;;;;;;;;;21.43;56.65;101478.91;5037046;28;1001;-58
2021/07/10 09:24:52;;;;;;;;;;;;;;;21.36;56.59;101469.66;5036152;28;993;-57
2021/07/10 09:27:17;;;;;;;;;;;;;;;21.43;57.14;101479.75;5036526;28;1898;-58
2021/07/10 09:29:43;;;;;;;;;;;;;;;21.47;58.34;101470.31;5036691;28;1676;-59
2021/07/10 09:32:08;;;;;;;;;;;;;;;21.47;58.79;101469.47;5036361;28;925;-59
2021/07/10 09:34:36;;;;;;;;;;;;;;;21.48;58.19;101472.03;5036742;28;981;-58
2021/07/10 09:37:01;;;;;;;;;;;;;;;21.51;57.73;101470.84;5036663;28;838;-59
2021/07/10 09:39:26;;;;;;;;;;;;;;;21.55;57.76;101466.81;5040028;28;1585;-59
2021/07/10 09:41:51;;;;;;;;;;;;;;;21.62;57.24;101467.06;5039849;28;1504;-58
2021/07/10 09:44:16;;;;;;;;;;;;;;;21.61;56.86;101463.47;5043915;28;1632;-57
2021/07/10 09:46:41;;;;;;;;;;;;;;;21.58;57.85;101466.50;5037192;28;2251;-58
2021/07/10 09:49:06;;;;;;;;;;;;;;;21.56;57.66;101463.09;5036753;28;1665;-57
2021/07/10 09:51:31;;;;;;;;;;;;;;;21.56;57.22;101454.94;5038554;28;1702;-58
2021/07/10 09:53:57;;;;;;;;;;;;;;;21.48;56.65;101449.47;5036186;28;1693;-58
2021/07/10 09:56:22;;;;;;;;;;;;;;;21.48;56.68;101463.03;5035670;28;1656;-58
2021/07/10 09:58:47;;;;;;;;;;;;;;;21.46;57.49;101454.19;5035156;28;1626;-57
2021/07/10 10:01:12;;;;;;;;;;;;;;;21.58;56.81;101454.81;5035938;28;1694;-58
2021/07/10 10:03:37;;;;;;;;;;;;;;;21.58;56.88;101452.94;5035862;28;1068;-58
2021/07/10 10:06:02;;;;;;;;;;;;;;;21.61;57.10;101452.63;5034929;28;3386;-57
2021/07/10 10:08:27;;;;;;;;;;;;;;;21.65;57.44;101451.31;5033547;28;3103;-59
2021/07/10 10:10:52;;;;;;;;;;;;;;;21.72;56.91;101457.81;5035656;28;1625;-58
2021/07/10 10:13:19;;;;;;;;;;;;;;;21.71;56.88;101449.81;5035282;28;1780;-58
2021/07/10 10:15:45;;;;;;;;;;;;;;;21.68;56.94;101448.25;5035235;28;1633;-57
2021/07/10 10:18:10;;;;;;;;;;;;;;;21.66;56.84;101450.31;5035451;28;1620;-56
2021/07/10 10:20:35;;;;;;;;;;;;;;;21.68;56.72;101448.25;5035193;28;1656;-55
2021/07/10 10:23:00;;;;;;;;;;;;;;;21.68;56.47;101445.56;5034995;28;1706;-57
2021/07/10 10:25:25;;;;;;;;;;;;;;;21.73;56.39;101440.53;5034235;28;2981;-57
2021/07/10 10:27:50;;;;;;;;;;;;;;;21.77;56.54;101441.06;5034984;28;1423;-58
2021/07/10 10:30:15;;;;;;;;;;;;;;;21.81;57.59;101437.88;5035733;28;1029;-57
2021/07/10 10:32:40;;;;;;;;;;;;;;;21.86;61.37;101431.09;5035091;28;1749;-57
2021/07/10 10:35:05;;;;;;;;;;;;;;;21.91;64.36;101432.34;5035768;28;1052;-58
2021/07/10 10:37:30;;;;;;;;;;;;;;;21.96;64.17;101431.88;5035826;28;1686;-56
2021/07/10 10:39:55;;;;;;;;;;;;;;;21.98;63.36;101421.72;5035513;28;908;-57
2021/07/10 10:42:20;;;;;;;;;;;;;;;21.96;60.10;101421.88;5035354;28;1499;-57
2021/07/10 10:44:45;;;;;;;;;;;;;;;21.94;59.14;101423.03;5035510;28;1877;-58
2021/07/10 10:47:11;;;;;;;;;;;;;;;21.96;58.14;101421.00;5034777;28;1973;-58
2021/07/10 10:49:36;;;;;;;;;;;;;;;21.98;58.06;101419.00;5035524;28;911;-57
2021/07/10 10:52:01;;;;;;;;;;;;;;;21.94;57.47;101418.47;5035357;28;1495;-57
2021/07/10 10:54:26;;;;;;;;;;;;;;;21.83;56.06;101411.44;5035059;28;1670;-58
2021/07/10 10:56:51;;;;;;;;;;;;;;;21.73;55.92;101415.25;5035096;28;791;-56
2021/07/10 10:59:16;;;;;;;;;;;;;;;21.76;56.53;101410.38;5035114;28;835;-58
2021/07/10 11:01:41;;;;;;;;;;;;;;;21.82;56.11;101409.75;5034631;28;1616;-56
2021/07/10 11:04:06;;;;;;;;;;;;;;;21.79;55.77;101417.34;5034208;28;1490;-57
2021/07/10 11:06:33;;;;;;;;;;;;;;;21.82;55.93;101417.03;5034658;28;1949;-57
2021/07/10 11:08:58;;;;;;;;;;;;;;;21.77;55.58;101414.78;5034965;28;1632;-57
2021/07/10 11:11:23;;;;;;;;;;;;;;;21.81;55.64;101416.19;5035094;28;830;-57
2021/07/10 11:13:49;;;;;;;;;;;;;;;21.80;55.74;101411.75;5034585;28;1726;-57
2021/07/10 11:16:18;;;;;;;;;;;;;;;21.79;55.44;101407.34;5034533;28;1682;-57
2021/07/10 11:18:43;;;;;;;;;;;;;;;21.79;55.61;101410.06;5031905;28;1548;-58
2021/07/10 11:21:08;;;;;;;;;;;;;;;21.78;55.58;101402.06;5034196;28;1456;-58
2021/07/10 11:23:33;;;;;;;;;;;;;;;21.71;54.71;101409.13;5034634;28;1289;-58
2021/07/10 11:25:58;;;;;;;;;;;;;;;21.70;55.32;101402.84;5032746;28;1989;-57
2021/07/10 11:28:23;;;;;;;;;;;;;;;21.81;54.95;101391.75;5033167;28;1596;-59
2021/07/10 11:30:51;;;;;;;;;;;;;;;21.87;55.49;101386.69;5034156;28;1630;-57
2021/07/10 11:33:16;;;;;;;;;;;;;;;21.93;55.55;101389.63;5034557;28;1601;-58
2021/07/10 11:35:44;;;;;;;;;;;;;;;21.96;55.98;101388.44;5035395;28;1642;-57
2021/07/10 11:38:09;;;;;;;;;;;;;;;21.99;55.87;101382.72;5035164;28;843;-58
2021/07/10 11:40:34;;;;;;;;;;;;;;;21.98;55.40;101376.44;5034671;28;942;-57
2021/07/10 11:42:59;;;;;;;;;;;;;;;21.93;56.38;101376.03;5034563;28;1017;-58
2021/07/10 11:45:24;;;;;;;;;;;;;;;21.91;56.45;101378.06;5034869;28;1939;-58
2021/07/10 11:47:51;;;;;;;;;;;;;;;21.91;56.11;101369.06;5037263;28;827;-56
2021/07/10 11:50:16;;;;;;;;;;;;;;;21.94;56.81;101363.31;5038517;28;844;-57
2021/07/10 11:52:41;;;;;;;;;;;;;;;21.94;56.04;101361.47;5038359;28;1535;-57
2021/07/10 11:55:06;;;;;;;;;;;;;;;21.98;55.68;101360.13;5038327;28;1757;-58
2021/07/10 11:57:31;;;;;;;;;;;;;;;21.98;55.47;101354.72;5038127;28;1028;-58
2021/07/10 11:59:58;;;;;;;;;;;;;;;21.99;54.81;101358.28;5038241;28;969;-60
2021/07/10 12:02:23;;;;;;;;;;;;;;;21.96;54.53;101350.44;5037844;28;1177;-59
2021/07/10 12:04:48;;;;;;;;;;;;;;;21.94;54.00;101347.03;5038203;28;1628;-59
2021/07/10 12:07:13;;;;;;;;;;;;;;;21.97;54.13;101344.00;5038142;28;1902;-58
2021/07/10 12:09:38;;;;;;;;;;;;;;;21.99;53.40;101350.13;5038474;28;1116;-58
2021/07/10 12:12:03;;;;;;;;;;;;;;;21.98;53.57;101346.56;5038362;28;1088;-59
2021/07/10 12:14:28;;;;;;;;;;;;;;;22.00;53.19;101341.88;5037830;28;1461;-58
2021/07/10 12:16:53;;;;;;;;;;;;;;;21.98;53.64;101343.00;5037619;28;1590;-58
2021/07/10 12:19:18;;;;;;;;;;;;;;;21.99;53.93;101340.13;5037517;28;1488;-58
2021/07/10 12:21:43;;;;;;;;;;;;;;;22.01;53.70;101342.72;5037247;28;1836;-58
2021/07/10 12:24:08;;;;;;;;;;;;;;;21.98;52.97;101349.28;5035861;28;1794;-58
2021/07/10 12:26:33;;;;;;;;;;;;;;;21.96;53.36;101339.59;5039989;28;1953;-58
2021/07/10 12:29:00;;;;;;;;;;;;;;;21.96;52.96;101350.44;5037760;28;941;-58
2021/07/10 12:31:29;;;;;;;;;;;;;;;21.98;53.08;101334.88;5037869;28;972;-59
2021/07/10 12:33:54;;;;;;;;;;;;;;;21.97;53.25;101341.31;5037617;28;840;-59
2021/07/10 12:36:20;;;;;;;;;;;;;;;22.00;53.64;101341.00;5037728;28;937;-58
2021/07/10 12:38:45;;;;;;;;;;;;;;;22.02;53.42;101349.84;5037537;28;856;-58